sensor_id;sensor_type;location;lat;lon;timestamp;P1;durP1;ratioP1;P2;durP2;ratioP2
73776;SDS011;62088;50.240;2.696;2023-04-12T00:01:58;12.15;;;2.75;;
73776;SDS011;62088;50.240;2.696;2023-04-12T00:04:25;5.75;;;2.85;;
73776;SDS011;62088;50.240;2.696;2023-04-12T00:06:54;3.45;;;1.50;;
73776;SDS011;62088;50.240;2.696;2023-04-12T00:09:21;8.23;;;2.97;;
73776;SDS011;62088;50.240;2.696;2023-04-12T00:11:48;6.70;;;2.88;;
73776;SDS011;62088;50.240;2.696;2023-04-12T00:14:15;6.50;;;2.97;;
73776;SDS011;62088;50.240;2.696;2023-04-12T00:16:42;7.60;;;3.15;;
73776;SDS011;62088;50.240;2.696;2023-04-12T00:19:09;6.07;;;3.05;;
73776;SDS011;62088;50.240;2.696;2023-04-12T00:21:36;7.28;;;3.05;;
73776;SDS011;62088;50.240;2.696;2023-04-12T00:24:03;6.70;;;3.13;;
73776;SDS011;62088;50.240;2.696;2023-04-12T00:26:31;9.00;;;3.47;;
73776;SDS011;62088;50.240;2.696;2023-04-12T00:28:58;6.57;;;2.97;;
73776;SDS011;62088;50.240;2.696;2023-04-12T00:31:25;11.65;;;3.50;;
73776;SDS011;62088;50.240;2.696;2023-04-12T00:33:52;6.93;;;3.63;;
73776;SDS011;62088;50.240;2.696;2023-04-12T00:36:19;11.05;;;3.60;;
73776;SDS011;62088;50.240;2.696;2023-04-12T00:38:47;6.82;;;3.10;;
73776;SDS011;62088;50.240;2.696;2023-04-12T00:41:14;6.82;;;3.28;;
73776;SDS011;62088;50.240;2.696;2023-04-12T00:43:41;10.02;;;4.03;;
73776;SDS011;62088;50.240;2.696;2023-04-12T00:46:08;10.70;;;3.75;;
73776;SDS011;62088;50.240;2.696;2023-04-12T00:48:37;8.10;;;3.67;;
73776;SDS011;62088;50.240;2.696;2023-04-12T00:51:05;6.28;;;3.58;;
73776;SDS011;62088;50.240;2.696;2023-04-12T00:53:33;8.85;;;3.53;;
73776;SDS011;62088;50.240;2.696;2023-04-12T00:56:00;8.40;;;3.65;;
73776;SDS011;62088;50.240;2.696;2023-04-12T00:58:29;9.82;;;3.90;;
73776;SDS011;62088;50.240;2.696;2023-04-12T01:00:57;6.68;;;3.47;;
73776;SDS011;62088;50.240;2.696;2023-04-12T01:03:24;6.90;;;3.60;;
73776;SDS011;62088;50.240;2.696;2023-04-12T01:11:16;8.27;;;3.70;;
73776;SDS011;62088;50.240;2.696;2023-04-12T01:16:49;9.05;;;3.70;;
73776;SDS011;62088;50.240;2.696;2023-04-12T01:28:04;7.18;;;3.92;;
73776;SDS011;62088;50.240;2.696;2023-04-12T01:30:32;7.72;;;3.72;;
73776;SDS011;62088;50.240;2.696;2023-04-12T01:33:00;6.43;;;3.45;;
73776;SDS011;62088;50.240;2.696;2023-04-12T01:35:31;10.77;;;4.00;;
73776;SDS011;62088;50.240;2.696;2023-04-12T01:38:00;6.30;;;3.58;;
73776;SDS011;62088;50.240;2.696;2023-04-12T01:40:29;6.55;;;3.85;;
73776;SDS011;62088;50.240;2.696;2023-04-12T01:43:06;6.90;;;3.67;;
73776;SDS011;62088;50.240;2.696;2023-04-12T01:45:38;7.45;;;3.88;;
73776;SDS011;62088;50.240;2.696;2023-04-12T01:48:10;5.28;;;3.60;;
73776;SDS011;62088;50.240;2.696;2023-04-12T01:50:43;6.32;;;3.60;;
73776;SDS011;62088;50.240;2.696;2023-04-12T01:53:27;7.38;;;3.72;;
73776;SDS011;62088;50.240;2.696;2023-04-12T01:56:07;5.78;;;3.50;;
73776;SDS011;62088;50.240;2.696;2023-04-12T01:58:35;7.35;;;3.65;;
73776;SDS011;62088;50.240;2.696;2023-04-12T02:01:05;6.13;;;3.90;;
73776;SDS011;62088;50.240;2.696;2023-04-12T02:03:36;8.68;;;3.65;;
73776;SDS011;62088;50.240;2.696;2023-04-12T02:06:08;6.57;;;3.58;;
73776;SDS011;62088;50.240;2.696;2023-04-12T02:08:36;5.63;;;3.58;;
73776;SDS011;62088;50.240;2.696;2023-04-12T02:11:07;6.90;;;3.55;;
73776;SDS011;62088;50.240;2.696;2023-04-12T02:13:34;6.45;;;3.00;;
73776;SDS011;62088;50.240;2.696;2023-04-12T02:16:04;5.97;;;3.00;;
73776;SDS011;62088;50.240;2.696;2023-04-12T02:18:35;6.78;;;2.95;;
73776;SDS011;62088;50.240;2.696;2023-04-12T02:21:04;6.25;;;3.05;;
73776;SDS011;62088;50.240;2.696;2023-04-12T02:23:33;5.38;;;3.00;;
73776;SDS011;62088;50.240;2.696;2023-04-12T02:26:00;6.97;;;3.00;;
73776;SDS011;62088;50.240;2.696;2023-04-12T02:28:27;5.22;;;3.00;;
73776;SDS011;62088;50.240;2.696;2023-04-12T02:30:54;6.68;;;2.90;;
73776;SDS011;62088;50.240;2.696;2023-04-12T02:33:22;4.97;;;2.72;;
73776;SDS011;62088;50.240;2.696;2023-04-12T02:35:55;4.75;;;2.67;;
73776;SDS011;62088;50.240;2.696;2023-04-12T02:38:23;4.70;;;2.05;;
73776;SDS011;62088;50.240;2.696;2023-04-12T02:40:50;6.38;;;2.10;;
73776;SDS011;62088;50.240;2.696;2023-04-12T02:43:18;7.57;;;2.17;;
73776;SDS011;62088;50.240;2.696;2023-04-12T02:45:50;5.25;;;1.85;;
73776;SDS011;62088;50.240;2.696;2023-04-12T02:48:17;4.25;;;1.92;;
73776;SDS011;62088;50.240;2.696;2023-04-12T02:50:44;3.90;;;1.70;;
73776;SDS011;62088;50.240;2.696;2023-04-12T02:53:17;4.93;;;1.43;;
73776;SDS011;62088;50.240;2.696;2023-04-12T02:55:52;2.83;;;1.20;;
73776;SDS011;62088;50.240;2.696;2023-04-12T02:58:22;1.60;;;0.80;;
73776;SDS011;62088;50.240;2.696;2023-04-12T03:00:51;4.57;;;1.35;;
73776;SDS011;62088;50.240;2.696;2023-04-12T03:03:24;3.28;;;0.90;;
73776;SDS011;62088;50.240;2.696;2023-04-12T03:05:57;4.32;;;1.00;;
73776;SDS011;62088;50.240;2.696;2023-04-12T03:08:25;2.70;;;0.70;;
73776;SDS011;62088;50.240;2.696;2023-04-12T03:10:55;4.25;;;0.90;;
73776;SDS011;62088;50.240;2.696;2023-04-12T03:13:24;2.38;;;0.75;;
73776;SDS011;62088;50.240;2.696;2023-04-12T03:15:57;3.25;;;0.98;;
73776;SDS011;62088;50.240;2.696;2023-04-12T03:18:31;5.47;;;0.93;;
73776;SDS011;62088;50.240;2.696;2023-04-12T03:20:58;3.72;;;0.90;;
73776;SDS011;62088;50.240;2.696;2023-04-12T03:23:28;3.47;;;0.90;;
73776;SDS011;62088;50.240;2.696;2023-04-12T03:26:10;3.35;;;0.70;;
73776;SDS011;62088;50.240;2.696;2023-04-12T03:28:45;2.50;;;0.60;;
73776;SDS011;62088;50.240;2.696;2023-04-12T03:31:13;5.53;;;1.50;;
73776;SDS011;62088;50.240;2.696;2023-04-12T03:33:42;3.78;;;0.80;;
73776;SDS011;62088;50.240;2.696;2023-04-12T03:36:22;3.35;;;0.80;;
73776;SDS011;62088;50.240;2.696;2023-04-12T03:39:09;4.88;;;1.00;;
73776;SDS011;62088;50.240;2.696;2023-04-12T03:41:37;5.35;;;0.93;;
73776;SDS011;62088;50.240;2.696;2023-04-12T03:44:04;4.35;;;1.00;;
73776;SDS011;62088;50.240;2.696;2023-04-12T03:46:34;4.65;;;0.88;;
73776;SDS011;62088;50.240;2.696;2023-04-12T03:49:05;3.65;;;0.77;;
73776;SDS011;62088;50.240;2.696;2023-04-12T03:51:33;3.83;;;0.95;;
73776;SDS011;62088;50.240;2.696;2023-04-12T03:54:02;3.35;;;0.80;;
73776;SDS011;62088;50.240;2.696;2023-04-12T03:56:49;3.72;;;0.90;;
73776;SDS011;62088;50.240;2.696;2023-04-12T03:59:23;4.00;;;1.30;;
73776;SDS011;62088;50.240;2.696;2023-04-12T04:01:50;4.18;;;0.82;;
73776;SDS011;62088;50.240;2.696;2023-04-12T04:04:18;5.07;;;1.00;;
73776;SDS011;62088;50.240;2.696;2023-04-12T04:06:49;6.53;;;1.20;;
73776;SDS011;62088;50.240;2.696;2023-04-12T04:09:17;5.63;;;1.20;;
73776;SDS011;62088;50.240;2.696;2023-04-12T04:11:44;4.43;;;1.20;;
73776;SDS011;62088;50.240;2.696;2023-04-12T04:14:12;6.43;;;1.25;;
73776;SDS011;62088;50.240;2.696;2023-04-12T04:16:39;7.22;;;1.35;;
73776;SDS011;62088;50.240;2.696;2023-04-12T04:19:07;4.70;;;1.08;;
73776;SDS011;62088;50.240;2.696;2023-04-12T04:21:34;6.05;;;1.70;;
73776;SDS011;62088;50.240;2.696;2023-04-12T04:24:02;8.05;;;1.30;;
73776;SDS011;62088;50.240;2.696;2023-04-12T04:26:34;3.13;;;0.80;;
73776;SDS011;62088;50.240;2.696;2023-04-12T04:29:21;2.90;;;0.60;;
73776;SDS011;62088;50.240;2.696;2023-04-12T04:31:49;3.63;;;1.00;;
73776;SDS011;62088;50.240;2.696;2023-04-12T04:34:16;3.92;;;1.08;;
73776;SDS011;62088;50.240;2.696;2023-04-12T04:36:46;2.97;;;0.98;;
73776;SDS011;62088;50.240;2.696;2023-04-12T04:39:20;4.72;;;1.10;;
73776;SDS011;62088;50.240;2.696;2023-04-12T04:41:48;4.60;;;1.02;;
73776;SDS011;62088;50.240;2.696;2023-04-12T04:44:43;3.72;;;1.00;;
73776;SDS011;62088;50.240;2.696;2023-04-12T04:47:10;7.72;;;1.23;;
73776;SDS011;62088;50.240;2.696;2023-04-12T04:49:37;5.38;;;0.88;;
73776;SDS011;62088;50.240;2.696;2023-04-12T04:52:19;5.05;;;1.00;;
73776;SDS011;62088;50.240;2.696;2023-04-12T04:54:47;3.97;;;1.00;;
73776;SDS011;62088;50.240;2.696;2023-04-12T04:57:15;7.22;;;1.13;;
73776;SDS011;62088;50.240;2.696;2023-04-12T04:59:43;4.95;;;1.10;;
73776;SDS011;62088;50.240;2.696;2023-04-12T05:02:15;5.05;;;1.00;;
73776;SDS011;62088;50.240;2.696;2023-04-12T05:04:43;5.07;;;1.00;;
73776;SDS011;62088;50.240;2.696;2023-04-12T05:07:13;4.72;;;1.00;;
73776;SDS011;62088;50.240;2.696;2023-04-12T05:09:43;5.90;;;0.98;;
73776;SDS011;62088;50.240;2.696;2023-04-12T05:12:10;5.47;;;1.05;;
73776;SDS011;62088;50.240;2.696;2023-04-12T05:14:41;4.65;;;0.80;;
73776;SDS011;62088;50.240;2.696;2023-04-12T05:17:17;6.07;;;1.25;;
73776;SDS011;62088;50.240;2.696;2023-04-12T05:19:44;4.35;;;1.27;;
73776;SDS011;62088;50.240;2.696;2023-04-12T05:22:11;4.20;;;1.20;;
73776;SDS011;62088;50.240;2.696;2023-04-12T05:24:39;5.40;;;1.50;;
73776;SDS011;62088;50.240;2.696;2023-04-12T05:27:06;7.60;;;1.38;;
73776;SDS011;62088;50.240;2.696;2023-04-12T05:29:34;5.18;;;1.23;;
73776;SDS011;62088;50.240;2.696;2023-04-12T05:32:02;4.97;;;1.13;;
73776;SDS011;62088;50.240;2.696;2023-04-12T05:34:29;1.55;;;0.60;;
73776;SDS011;62088;50.240;2.696;2023-04-12T05:36:56;7.28;;;1.00;;
73776;SDS011;62088;50.240;2.696;2023-04-12T05:39:29;3.17;;;1.10;;
73776;SDS011;62088;50.240;2.696;2023-04-12T05:41:57;5.63;;;1.30;;
73776;SDS011;62088;50.240;2.696;2023-04-12T05:44:25;4.03;;;1.05;;
73776;SDS011;62088;50.240;2.696;2023-04-12T05:46:52;4.95;;;1.25;;
73776;SDS011;62088;50.240;2.696;2023-04-12T05:49:19;4.55;;;1.15;;
73776;SDS011;62088;50.240;2.696;2023-04-12T05:51:47;5.50;;;1.08;;
73776;SDS011;62088;50.240;2.696;2023-04-12T05:54:19;5.82;;;1.23;;
73776;SDS011;62088;50.240;2.696;2023-04-12T05:56:50;5.00;;;1.70;;
73776;SDS011;62088;50.240;2.696;2023-04-12T05:59:18;4.20;;;1.05;;
73776;SDS011;62088;50.240;2.696;2023-04-12T06:01:45;6.03;;;2.20;;
73776;SDS011;62088;50.240;2.696;2023-04-12T06:04:14;2.78;;;1.30;;
73776;SDS011;62088;50.240;2.696;2023-04-12T06:06:45;7.20;;;2.78;;
73776;SDS011;62088;50.240;2.696;2023-04-12T06:09:13;5.60;;;1.80;;
73776;SDS011;62088;50.240;2.696;2023-04-12T06:11:41;3.80;;;1.10;;
73776;SDS011;62088;50.240;2.696;2023-04-12T06:14:08;5.72;;;1.80;;
73776;SDS011;62088;50.240;2.696;2023-04-12T06:16:37;7.32;;;2.08;;
73776;SDS011;62088;50.240;2.696;2023-04-12T06:19:07;6.53;;;2.20;;
73776;SDS011;62088;50.240;2.696;2023-04-12T06:21:34;11.32;;;1.80;;
73776;SDS011;62088;50.240;2.696;2023-04-12T06:24:01;4.60;;;1.40;;
73776;SDS011;62088;50.240;2.696;2023-04-12T06:26:28;7.40;;;1.60;;
73776;SDS011;62088;50.240;2.696;2023-04-12T06:29:05;2.80;;;1.08;;
73776;SDS011;62088;50.240;2.696;2023-04-12T06:31:32;5.32;;;1.63;;
73776;SDS011;62088;50.240;2.696;2023-04-12T06:33:59;6.47;;;1.75;;
73776;SDS011;62088;50.240;2.696;2023-04-12T06:36:27;4.85;;;1.20;;
73776;SDS011;62088;50.240;2.696;2023-04-12T06:38:54;6.38;;;1.95;;
73776;SDS011;62088;50.240;2.696;2023-04-12T06:41:21;5.60;;;1.80;;
73776;SDS011;62088;50.240;2.696;2023-04-12T06:43:57;6.80;;;2.00;;
73776;SDS011;62088;50.240;2.696;2023-04-12T06:46:27;4.93;;;1.98;;
73776;SDS011;62088;50.240;2.696;2023-04-12T06:48:55;8.15;;;2.00;;
73776;SDS011;62088;50.240;2.696;2023-04-12T06:51:22;6.60;;;1.60;;
73776;SDS011;62088;50.240;2.696;2023-04-12T06:53:49;8.07;;;1.75;;
73776;SDS011;62088;50.240;2.696;2023-04-12T06:56:16;8.07;;;1.98;;
73776;SDS011;62088;50.240;2.696;2023-04-12T06:58:44;5.57;;;1.20;;
73776;SDS011;62088;50.240;2.696;2023-04-12T07:01:11;4.38;;;1.40;;
73776;SDS011;62088;50.240;2.696;2023-04-12T07:03:41;6.50;;;1.45;;
73776;SDS011;62088;50.240;2.696;2023-04-12T07:06:08;5.47;;;1.25;;
73776;SDS011;62088;50.240;2.696;2023-04-12T07:08:50;6.55;;;1.30;;
73776;SDS011;62088;50.240;2.696;2023-04-12T07:11:18;5.72;;;1.50;;
73776;SDS011;62088;50.240;2.696;2023-04-12T07:13:48;4.82;;;1.48;;
73776;SDS011;62088;50.240;2.696;2023-04-12T07:16:16;4.10;;;1.40;;
73776;SDS011;62088;50.240;2.696;2023-04-12T07:18:43;5.93;;;1.40;;
73776;SDS011;62088;50.240;2.696;2023-04-12T07:21:11;7.88;;;1.55;;
73776;SDS011;62088;50.240;2.696;2023-04-12T07:23:43;4.13;;;1.10;;
73776;SDS011;62088;50.240;2.696;2023-04-12T07:26:10;6.78;;;1.60;;
73776;SDS011;62088;50.240;2.696;2023-04-12T07:28:37;5.97;;;1.85;;
73776;SDS011;62088;50.240;2.696;2023-04-12T07:31:05;5.03;;;1.38;;
73776;SDS011;62088;50.240;2.696;2023-04-12T07:33:33;6.50;;;1.40;;
73776;SDS011;62088;50.240;2.696;2023-04-12T07:36:02;8.10;;;1.50;;
73776;SDS011;62088;50.240;2.696;2023-04-12T07:38:30;9.07;;;1.27;;
73776;SDS011;62088;50.240;2.696;2023-04-12T07:40:57;5.72;;;1.27;;
73776;SDS011;62088;50.240;2.696;2023-04-12T07:43:24;6.50;;;1.70;;
73776;SDS011;62088;50.240;2.696;2023-04-12T07:45:53;6.68;;;1.25;;
73776;SDS011;62088;50.240;2.696;2023-04-12T07:48:21;7.13;;;1.55;;
73776;SDS011;62088;50.240;2.696;2023-04-12T07:50:48;5.88;;;1.50;;
73776;SDS011;62088;50.240;2.696;2023-04-12T07:53:17;7.45;;;1.70;;
73776;SDS011;62088;50.240;2.696;2023-04-12T07:55:47;9.07;;;1.80;;
73776;SDS011;62088;50.240;2.696;2023-04-12T07:58:15;9.02;;;1.70;;
73776;SDS011;62088;50.240;2.696;2023-04-12T08:00:43;8.73;;;1.50;;
73776;SDS011;62088;50.240;2.696;2023-04-12T08:03:11;6.95;;;1.52;;
73776;SDS011;62088;50.240;2.696;2023-04-12T08:05:39;9.23;;;1.70;;
73776;SDS011;62088;50.240;2.696;2023-04-12T08:08:07;6.95;;;1.50;;
73776;SDS011;62088;50.240;2.696;2023-04-12T08:10:38;8.32;;;1.70;;
73776;SDS011;62088;50.240;2.696;2023-04-12T08:13:05;6.85;;;1.55;;
73776;SDS011;62088;50.240;2.696;2023-04-12T08:15:32;4.32;;;1.17;;
73776;SDS011;62088;50.240;2.696;2023-04-12T08:18:00;8.48;;;1.52;;
73776;SDS011;62088;50.240;2.696;2023-04-12T08:20:28;8.38;;;1.50;;
73776;SDS011;62088;50.240;2.696;2023-04-12T08:22:55;7.45;;;1.42;;
73776;SDS011;62088;50.240;2.696;2023-04-12T08:25:22;6.72;;;1.40;;
73776;SDS011;62088;50.240;2.696;2023-04-12T08:27:49;5.40;;;1.33;;
73776;SDS011;62088;50.240;2.696;2023-04-12T08:30:17;11.20;;;2.13;;
73776;SDS011;62088;50.240;2.696;2023-04-12T08:32:44;6.68;;;1.42;;
73776;SDS011;62088;50.240;2.696;2023-04-12T08:35:13;9.30;;;1.92;;
73776;SDS011;62088;50.240;2.696;2023-04-12T08:37:40;8.00;;;1.77;;
73776;SDS011;62088;50.240;2.696;2023-04-12T08:40:07;5.28;;;1.55;;
73776;SDS011;62088;50.240;2.696;2023-04-12T08:42:35;7.97;;;1.75;;
73776;SDS011;62088;50.240;2.696;2023-04-12T08:45:07;6.35;;;1.67;;
73776;SDS011;62088;50.240;2.696;2023-04-12T08:47:42;8.15;;;1.80;;
73776;SDS011;62088;50.240;2.696;2023-04-12T08:50:10;9.82;;;1.58;;
73776;SDS011;62088;50.240;2.696;2023-04-12T08:52:42;7.43;;;1.73;;
73776;SDS011;62088;50.240;2.696;2023-04-12T08:55:09;12.65;;;2.33;;
73776;SDS011;62088;50.240;2.696;2023-04-12T08:57:39;8.35;;;1.98;;
73776;SDS011;62088;50.240;2.696;2023-04-12T09:00:08;7.80;;;1.67;;
73776;SDS011;62088;50.240;2.696;2023-04-12T09:02:36;6.25;;;1.52;;
73776;SDS011;62088;50.240;2.696;2023-04-12T09:05:04;6.18;;;1.63;;
73776;SDS011;62088;50.240;2.696;2023-04-12T09:07:32;9.57;;;1.77;;
73776;SDS011;62088;50.240;2.696;2023-04-12T09:10:00;11.10;;;2.10;;
73776;SDS011;62088;50.240;2.696;2023-04-12T09:12:27;11.75;;;1.90;;
73776;SDS011;62088;50.240;2.696;2023-04-12T09:15:04;10.40;;;2.30;;
73776;SDS011;62088;50.240;2.696;2023-04-12T09:17:34;8.95;;;1.90;;
73776;SDS011;62088;50.240;2.696;2023-04-12T09:22:37;10.15;;;2.25;;
73776;SDS011;62088;50.240;2.696;2023-04-12T09:25:10;8.27;;;1.85;;
73776;SDS011;62088;50.240;2.696;2023-04-12T09:27:47;8.18;;;2.03;;
73776;SDS011;62088;50.240;2.696;2023-04-12T09:30:18;9.40;;;1.95;;
73776;SDS011;62088;50.240;2.696;2023-04-12T09:32:46;6.40;;;1.90;;
73776;SDS011;62088;50.240;2.696;2023-04-12T09:35:20;7.57;;;1.70;;
73776;SDS011;62088;50.240;2.696;2023-04-12T09:38:06;9.98;;;1.75;;
73776;SDS011;62088;50.240;2.696;2023-04-12T09:40:34;8.77;;;2.22;;
73776;SDS011;62088;50.240;2.696;2023-04-12T09:43:02;8.27;;;1.83;;
73776;SDS011;62088;50.240;2.696;2023-04-12T09:45:32;5.50;;;1.75;;
73776;SDS011;62088;50.240;2.696;2023-04-12T09:48:00;9.32;;;2.00;;
73776;SDS011;62088;50.240;2.696;2023-04-12T09:50:28;7.47;;;1.65;;
73776;SDS011;62088;50.240;2.696;2023-04-12T09:52:58;10.77;;;1.98;;
73776;SDS011;62088;50.240;2.696;2023-04-12T09:55:27;5.80;;;1.42;;
73776;SDS011;62088;50.240;2.696;2023-04-12T09:58:00;10.70;;;2.05;;
73776;SDS011;62088;50.240;2.696;2023-04-12T10:00:29;9.55;;;1.58;;
73776;SDS011;62088;50.240;2.696;2023-04-12T10:03:00;9.80;;;1.98;;
73776;SDS011;62088;50.240;2.696;2023-04-12T10:05:27;8.57;;;1.95;;
73776;SDS011;62088;50.240;2.696;2023-04-12T10:07:58;8.82;;;1.70;;
73776;SDS011;62088;50.240;2.696;2023-04-12T10:10:28;9.15;;;1.38;;
73776;SDS011;62088;50.240;2.696;2023-04-12T10:12:56;4.55;;;1.00;;
73776;SDS011;62088;50.240;2.696;2023-04-12T10:15:23;8.63;;;1.60;;
73776;SDS011;62088;50.240;2.696;2023-04-12T10:17:56;4.07;;;0.95;;
73776;SDS011;62088;50.240;2.696;2023-04-12T10:20:24;5.25;;;1.27;;
73776;SDS011;62088;50.240;2.696;2023-04-12T10:22:55;5.28;;;1.15;;
73776;SDS011;62088;50.240;2.696;2023-04-12T10:25:24;4.55;;;0.80;;
73776;SDS011;62088;50.240;2.696;2023-04-12T10:27:53;5.32;;;1.08;;
73776;SDS011;62088;50.240;2.696;2023-04-12T10:38:17;4.53;;;1.08;;
73776;SDS011;62088;50.240;2.696;2023-04-12T10:43:47;5.20;;;1.13;;
73776;SDS011;62088;50.240;2.696;2023-04-12T10:49:09;4.93;;;1.80;;
73776;SDS011;62088;50.240;2.696;2023-04-12T10:51:37;5.32;;;1.30;;
73776;SDS011;62088;50.240;2.696;2023-04-12T10:56:45;5.03;;;1.42;;
73776;SDS011;62088;50.240;2.696;2023-04-12T10:59:18;5.85;;;1.50;;
73776;SDS011;62088;50.240;2.696;2023-04-12T11:05:01;6.68;;;1.35;;
73776;SDS011;62088;50.240;2.696;2023-04-12T11:07:51;5.13;;;1.35;;
73776;SDS011;62088;50.240;2.696;2023-04-12T11:10:37;8.70;;;1.75;;
73776;SDS011;62088;50.240;2.696;2023-04-12T11:13:07;4.78;;;0.90;;
73776;SDS011;62088;50.240;2.696;2023-04-12T11:15:37;5.82;;;1.08;;
73776;SDS011;62088;50.240;2.696;2023-04-12T11:18:10;3.50;;;1.33;;
73776;SDS011;62088;50.240;2.696;2023-04-12T11:20:38;4.97;;;1.60;;
73776;SDS011;62088;50.240;2.696;2023-04-12T11:23:08;8.25;;;1.23;;
73776;SDS011;62088;50.240;2.696;2023-04-12T11:25:37;5.70;;;1.05;;
73776;SDS011;62088;50.240;2.696;2023-04-12T11:28:04;5.40;;;1.30;;
73776;SDS011;62088;50.240;2.696;2023-04-12T11:30:52;7.35;;;3.42;;
73776;SDS011;62088;50.240;2.696;2023-04-12T11:33:38;5.55;;;1.40;;
73776;SDS011;62088;50.240;2.696;2023-04-12T11:36:10;3.85;;;1.10;;
73776;SDS011;62088;50.240;2.696;2023-04-12T11:38:38;4.68;;;1.23;;
73776;SDS011;62088;50.240;2.696;2023-04-12T11:41:06;3.92;;;1.30;;
73776;SDS011;62088;50.240;2.696;2023-04-12T11:43:34;4.00;;;1.10;;
73776;SDS011;62088;50.240;2.696;2023-04-12T11:46:04;3.50;;;0.70;;
73776;SDS011;62088;50.240;2.696;2023-04-12T11:48:31;2.67;;;0.80;;
73776;SDS011;62088;50.240;2.696;2023-04-12T11:50:59;2.35;;;0.70;;
73776;SDS011;62088;50.240;2.696;2023-04-12T11:53:37;4.13;;;0.80;;
73776;SDS011;62088;50.240;2.696;2023-04-12T11:56:04;4.88;;;0.93;;
73776;SDS011;62088;50.240;2.696;2023-04-12T11:58:32;4.50;;;0.90;;
73776;SDS011;62088;50.240;2.696;2023-04-12T12:00:59;3.30;;;0.75;;
73776;SDS011;62088;50.240;2.696;2023-04-12T12:03:26;4.47;;;1.00;;
73776;SDS011;62088;50.240;2.696;2023-04-12T12:05:54;4.05;;;0.95;;
73776;SDS011;62088;50.240;2.696;2023-04-12T12:08:22;3.83;;;0.85;;
73776;SDS011;62088;50.240;2.696;2023-04-12T12:10:50;3.85;;;0.85;;
73776;SDS011;62088;50.240;2.696;2023-04-12T12:13:42;5.93;;;1.10;;
73776;SDS011;62088;50.240;2.696;2023-04-12T12:16:11;4.95;;;1.02;;
73776;SDS011;62088;50.240;2.696;2023-04-12T12:18:39;3.42;;;1.15;;
73776;SDS011;62088;50.240;2.696;2023-04-12T12:21:10;9.40;;;1.40;;
73776;SDS011;62088;50.240;2.696;2023-04-12T12:23:40;5.40;;;1.13;;
73776;SDS011;62088;50.240;2.696;2023-04-12T12:26:08;6.70;;;1.25;;
73776;SDS011;62088;50.240;2.696;2023-04-12T12:28:47;4.30;;;1.00;;
73776;SDS011;62088;50.240;2.696;2023-04-12T12:31:23;8.82;;;2.40;;
73776;SDS011;62088;50.240;2.696;2023-04-12T12:33:53;4.88;;;1.77;;
73776;SDS011;62088;50.240;2.696;2023-04-12T12:36:29;5.28;;;1.45;;
73776;SDS011;62088;50.240;2.696;2023-04-12T12:41:37;6.50;;;1.60;;
73776;SDS011;62088;50.240;2.696;2023-04-12T12:44:05;3.70;;;0.90;;
73776;SDS011;62088;50.240;2.696;2023-04-12T12:46:33;1.92;;;0.50;;
73776;SDS011;62088;50.240;2.696;2023-04-12T12:49:03;5.38;;;1.67;;
73776;SDS011;62088;50.240;2.696;2023-04-12T12:51:31;4.70;;;1.10;;
73776;SDS011;62088;50.240;2.696;2023-04-12T12:53:58;5.68;;;1.45;;
73776;SDS011;62088;50.240;2.696;2023-04-12T12:56:26;5.03;;;1.30;;
73776;SDS011;62088;50.240;2.696;2023-04-12T12:58:53;7.45;;;1.40;;
73776;SDS011;62088;50.240;2.696;2023-04-12T13:01:20;5.88;;;1.08;;
73776;SDS011;62088;50.240;2.696;2023-04-12T13:03:48;4.05;;;1.13;;
73776;SDS011;62088;50.240;2.696;2023-04-12T13:06:16;5.60;;;1.13;;
73776;SDS011;62088;50.240;2.696;2023-04-12T13:08:43;3.60;;;0.98;;
73776;SDS011;62088;50.240;2.696;2023-04-12T13:11:10;7.55;;;1.23;;
73776;SDS011;62088;50.240;2.696;2023-04-12T13:13:37;3.47;;;0.98;;
73776;SDS011;62088;50.240;2.696;2023-04-12T13:16:04;5.15;;;1.27;;
73776;SDS011;62088;50.240;2.696;2023-04-12T13:18:32;4.20;;;0.85;;
73776;SDS011;62088;50.240;2.696;2023-04-12T13:20:59;5.05;;;1.35;;
73776;SDS011;62088;50.240;2.696;2023-04-12T13:23:26;4.15;;;1.10;;
73776;SDS011;62088;50.240;2.696;2023-04-12T13:25:53;4.80;;;1.17;;
73776;SDS011;62088;50.240;2.696;2023-04-12T13:28:20;5.97;;;1.00;;
73776;SDS011;62088;50.240;2.696;2023-04-12T13:30:47;3.97;;;0.80;;
73776;SDS011;62088;50.240;2.696;2023-04-12T13:33:14;3.22;;;0.90;;
73776;SDS011;62088;50.240;2.696;2023-04-12T13:35:46;2.63;;;0.60;;
73776;SDS011;62088;50.240;2.696;2023-04-12T13:38:13;2.75;;;0.70;;
73776;SDS011;62088;50.240;2.696;2023-04-12T13:40:40;1.77;;;0.63;;
73776;SDS011;62088;50.240;2.696;2023-04-12T13:43:07;2.38;;;0.73;;
73776;SDS011;62088;50.240;2.696;2023-04-12T13:45:34;1.65;;;0.60;;
73776;SDS011;62088;50.240;2.696;2023-04-12T13:48:02;3.38;;;0.93;;
73776;SDS011;62088;50.240;2.696;2023-04-12T13:50:29;3.15;;;0.85;;
73776;SDS011;62088;50.240;2.696;2023-04-12T13:52:56;3.50;;;0.70;;
73776;SDS011;62088;50.240;2.696;2023-04-12T13:55:23;3.58;;;0.80;;
73776;SDS011;62088;50.240;2.696;2023-04-12T13:57:50;4.97;;;1.10;;
73776;SDS011;62088;50.240;2.696;2023-04-12T14:00:17;4.60;;;1.20;;
73776;SDS011;62088;50.240;2.696;2023-04-12T14:02:45;6.40;;;1.20;;
73776;SDS011;62088;50.240;2.696;2023-04-12T14:05:12;4.03;;;1.00;;
73776;SDS011;62088;50.240;2.696;2023-04-12T14:07:41;5.47;;;1.00;;
73776;SDS011;62088;50.240;2.696;2023-04-12T14:10:08;5.30;;;1.20;;
73776;SDS011;62088;50.240;2.696;2023-04-12T14:12:36;4.20;;;1.15;;
73776;SDS011;62088;50.240;2.696;2023-04-12T14:15:03;5.95;;;1.42;;
73776;SDS011;62088;50.240;2.696;2023-04-12T14:17:31;4.00;;;1.30;;
73776;SDS011;62088;50.240;2.696;2023-04-12T14:19:58;5.28;;;1.02;;
73776;SDS011;62088;50.240;2.696;2023-04-12T14:22:26;4.60;;;1.25;;
73776;SDS011;62088;50.240;2.696;2023-04-12T14:24:53;4.35;;;0.80;;
73776;SDS011;62088;50.240;2.696;2023-04-12T14:27:20;4.65;;;1.05;;
73776;SDS011;62088;50.240;2.696;2023-04-12T14:29:47;6.15;;;1.05;;
73776;SDS011;62088;50.240;2.696;2023-04-12T14:32:15;5.22;;;1.00;;
73776;SDS011;62088;50.240;2.696;2023-04-12T14:34:42;6.18;;;1.55;;
73776;SDS011;62088;50.240;2.696;2023-04-12T14:37:09;3.70;;;1.10;;
73776;SDS011;62088;50.240;2.696;2023-04-12T14:39:36;3.33;;;1.00;;
73776;SDS011;62088;50.240;2.696;2023-04-12T14:42:04;3.67;;;1.08;;
73776;SDS011;62088;50.240;2.696;2023-04-12T14:44:31;3.28;;;1.00;;
73776;SDS011;62088;50.240;2.696;2023-04-12T14:46:58;1.75;;;0.77;;
73776;SDS011;62088;50.240;2.696;2023-04-12T14:49:26;4.53;;;1.15;;
73776;SDS011;62088;50.240;2.696;2023-04-12T14:51:56;3.42;;;1.00;;
73776;SDS011;62088;50.240;2.696;2023-04-12T14:54:23;2.65;;;0.90;;
73776;SDS011;62088;50.240;2.696;2023-04-12T14:56:50;2.97;;;1.00;;
73776;SDS011;62088;50.240;2.696;2023-04-12T14:59:21;6.70;;;1.15;;
73776;SDS011;62088;50.240;2.696;2023-04-12T15:01:48;3.17;;;0.70;;
73776;SDS011;62088;50.240;2.696;2023-04-12T15:04:18;3.38;;;0.85;;
73776;SDS011;62088;50.240;2.696;2023-04-12T15:06:45;7.75;;;1.20;;
73776;SDS011;62088;50.240;2.696;2023-04-12T15:09:13;6.32;;;1.58;;
73776;SDS011;62088;50.240;2.696;2023-04-12T15:11:43;3.60;;;1.10;;
73776;SDS011;62088;50.240;2.696;2023-04-12T15:14:14;2.92;;;0.80;;
73776;SDS011;62088;50.240;2.696;2023-04-12T15:16:43;4.95;;;1.10;;
73776;SDS011;62088;50.240;2.696;2023-04-12T15:19:14;5.10;;;1.38;;
73776;SDS011;62088;50.240;2.696;2023-04-12T15:21:47;4.55;;;1.45;;
73776;SDS011;62088;50.240;2.696;2023-04-12T15:24:20;3.58;;;1.05;;
73776;SDS011;62088;50.240;2.696;2023-04-12T15:26:48;4.82;;;1.00;;
73776;SDS011;62088;50.240;2.696;2023-04-12T15:29:18;2.70;;;0.70;;
73776;SDS011;62088;50.240;2.696;2023-04-12T15:31:46;4.10;;;1.00;;
73776;SDS011;62088;50.240;2.696;2023-04-12T15:34:13;4.65;;;1.00;;
73776;SDS011;62088;50.240;2.696;2023-04-12T15:36:40;4.40;;;1.20;;
73776;SDS011;62088;50.240;2.696;2023-04-12T15:39:09;4.00;;;1.00;;
73776;SDS011;62088;50.240;2.696;2023-04-12T15:41:38;3.97;;;1.20;;
73776;SDS011;62088;50.240;2.696;2023-04-12T15:44:07;4.10;;;1.20;;